createdAt,value
2018-08-03T00:02:14.374Z,52.70
2018-08-03T00:04:45.725Z,52.07
2018-08-03T00:07:14.332Z,52.01
2018-08-03T00:09:42.848Z,52.09
2018-08-03T00:12:11.683Z,51.77
2018-08-03T00:14:40.242Z,51.64
2018-08-03T00:17:08.843Z,51.98
2018-08-03T00:19:37.998Z,51.74
2018-08-03T00:22:07.120Z,52.52
2018-08-03T00:24:35.978Z,51.87
2018-08-03T00:27:04.990Z,51.93
2018-08-03T00:29:33.584Z,51.73
2018-08-03T00:32:02.883Z,51.87
2018-08-03T00:34:32.442Z,51.97
2018-08-03T00:37:01.077Z,51.71
2018-08-03T00:39:29.940Z,51.60
2018-08-03T00:41:58.845Z,52.20
2018-08-03T00:44:28.424Z,52.58
2018-08-03T00:46:57.604Z,52.09
2018-08-03T00:49:26.188Z,52.02
2018-08-03T00:51:55.486Z,51.08
2018-08-03T00:54:24.060Z,52.12
2018-08-03T00:56:53.370Z,52.23
2018-08-03T00:59:22.270Z,52.15
2018-08-03T01:01:50.837Z,51.96
2018-08-03T01:04:20.336Z,51.94
2018-08-03T01:06:49.228Z,51.81
2018-08-03T01:09:18.520Z,52.37
2018-08-03T01:11:47.118Z,51.88
2018-08-03T01:14:16.188Z,52.20
2018-08-03T01:16:44.656Z,52.00
2018-08-03T01:19:14.520Z,52.41
2018-08-03T01:21:46.408Z,52.13
2018-08-03T01:24:16.056Z,52.41
2018-08-03T01:26:44.599Z,51.95
2018-08-03T01:29:14.758Z,52.93
2018-08-03T01:31:46.060Z,52.47
2018-08-03T01:34:14.920Z,52.78
2018-08-03T01:36:43.588Z,52.18
2018-08-03T01:39:13.060Z,52.01
2018-08-03T01:41:41.687Z,51.88
2018-08-03T01:44:10.899Z,51.87
2018-08-03T01:46:39.788Z,52.20
2018-08-03T01:49:08.939Z,52.12
2018-08-03T01:51:38.025Z,52.24
2018-08-03T01:54:06.656Z,52.23
2018-08-03T01:56:35.519Z,52.39
2018-08-03T01:59:05.393Z,51.28
2018-08-03T02:01:34.851Z,51.56
2018-08-03T02:04:04.693Z,51.90
2018-08-03T02:06:33.815Z,51.62
2018-08-03T02:09:03.712Z,51.66
2018-08-03T02:11:34.930Z,51.27
2018-08-03T02:14:05.387Z,52.08
2018-08-03T02:16:35.976Z,52.24
2018-08-03T02:19:05.532Z,51.91
2018-08-03T02:21:34.908Z,52.68
2018-08-03T02:24:04.278Z,52.65
2018-08-03T02:26:33.292Z,52.20
2018-08-03T02:29:02.404Z,51.88
2018-08-03T02:31:32.334Z,52.00
2018-08-03T02:34:01.606Z,52.13
2018-08-03T02:36:31.699Z,51.77
2018-08-03T02:39:00.839Z,52.23
2018-08-03T02:41:30.722Z,51.95
2018-08-03T02:43:59.616Z,51.97
2018-08-03T02:46:29.541Z,51.95
2018-08-03T02:48:58.330Z,51.80
2018-08-03T02:51:29.646Z,50.89
2018-08-03T02:53:59.466Z,51.56
2018-08-03T02:56:30.709Z,51.36
2018-08-03T02:59:03.855Z,51.35
2018-08-03T03:01:33.252Z,51.29
2018-08-03T03:04:03.338Z,51.26
2018-08-03T03:06:33.410Z,51.62
2018-08-03T03:09:04.307Z,51.24
2018-08-03T03:11:34.006Z,51.21
2018-08-03T03:14:05.874Z,51.13
2018-08-03T03:16:36.309Z,50.34
2018-08-03T03:19:06.090Z,51.14
2018-08-03T03:21:35.902Z,50.17
2018-08-03T03:24:05.612Z,49.95
2018-08-03T03:26:34.946Z,50.04
2018-08-03T03:29:07.586Z,50.02
2018-08-03T03:31:39.797Z,50.07
2018-08-03T03:48:49.026Z,50.69
2018-08-03T03:51:18.755Z,50.33
2018-08-03T03:53:53.622Z,49.81
2018-08-03T03:56:25.414Z,49.99
2018-08-03T03:58:54.714Z,50.26
2018-08-03T04:01:24.812Z,50.13
2018-08-03T04:03:54.474Z,50.44
2018-08-03T04:06:23.672Z,50.16
2018-08-03T04:08:53.184Z,50.55
2018-08-03T04:11:23.052Z,50.13
2018-08-03T04:13:52.063Z,49.90
2018-08-03T04:16:20.636Z,49.97
2018-08-03T04:18:49.520Z,49.76
2018-08-03T04:21:19.230Z,50.38
2018-08-03T04:23:48.210Z,50.53
2018-08-03T04:26:17.064Z,49.92
2018-08-03T04:28:45.577Z,50.40
2018-08-03T04:31:14.404Z,50.06
2018-08-03T04:33:43.083Z,50.31
2018-08-03T04:36:12.944Z,49.62
2018-08-03T04:38:41.446Z,49.22
2018-08-03T04:41:09.930Z,49.94
2018-08-03T04:46:31.394Z,49.27
2018-08-03T04:49:00.968Z,50.01
2018-08-03T04:51:30.196Z,49.66
2018-08-03T04:54:00.520Z,50.38
2018-08-03T04:56:31.436Z,49.68
2018-08-03T04:59:00.502Z,49.38
2018-08-03T05:01:29.410Z,49.34
2018-08-03T05:04:00.168Z,49.86
2018-08-03T05:06:30.132Z,49.13
2018-08-03T05:08:59.158Z,49.73
2018-08-03T05:11:30.116Z,49.77
2018-08-03T05:13:58.800Z,49.91
2018-08-03T05:16:28.318Z,49.38
2018-08-03T05:18:58.736Z,49.91
2018-08-03T05:21:27.847Z,49.52
2018-08-03T05:23:56.844Z,49.53
2018-08-03T05:26:25.780Z,49.08
2018-08-03T05:28:56.430Z,49.76
2018-08-03T05:31:25.000Z,49.63
2018-08-03T05:33:54.590Z,49.68
2018-08-03T05:36:23.272Z,49.46
2018-08-03T05:38:52.294Z,49.96
2018-08-03T05:41:20.983Z,50.47
2018-08-03T05:43:53.326Z,49.70
2018-08-03T05:46:22.958Z,49.94
2018-08-03T05:48:52.850Z,50.25
2018-08-03T05:51:21.574Z,50.14
2018-08-03T05:53:51.609Z,50.01
2018-08-03T05:56:25.414Z,49.96
2018-08-03T05:58:54.218Z,49.81
2018-08-03T06:01:23.420Z,49.76
2018-08-03T06:03:53.452Z,50.08
2018-08-03T06:06:22.050Z,50.55
2018-08-03T06:08:50.872Z,50.65
2018-08-03T06:11:19.654Z,50.45
2018-08-03T06:13:48.062Z,50.86
2018-08-03T06:16:17.126Z,50.15
2018-08-03T06:18:47.091Z,50.74
2018-08-03T06:21:15.480Z,51.02
2018-08-03T06:23:49.116Z,51.34
2018-08-03T06:26:17.918Z,51.11
2018-08-03T06:28:46.402Z,50.88
2018-08-03T06:31:14.903Z,51.79
2018-08-03T06:33:43.754Z,51.07
2018-08-03T06:36:12.438Z,51.86
2018-08-03T06:38:41.007Z,51.24
2018-08-03T06:41:09.627Z,51.42
2018-08-03T06:43:43.128Z,51.86
2018-08-03T06:46:11.936Z,51.53
2018-08-03T06:48:44.360Z,51.64
2018-08-03T06:51:13.282Z,51.66
2018-08-03T06:53:42.941Z,51.41
2018-08-03T06:56:11.475Z,52.18
2018-08-03T06:58:42.952Z,52.01
2018-08-03T07:01:12.099Z,51.97
2018-08-03T07:03:40.869Z,52.37
2018-08-03T07:06:09.758Z,52.02
2018-08-03T07:08:39.228Z,52.37
2018-08-03T07:11:07.898Z,52.37
2018-08-03T07:13:41.528Z,52.59
2018-08-03T07:16:10.324Z,52.82
2018-08-03T07:18:38.834Z,52.22
2018-08-03T07:21:07.917Z,52.72
2018-08-03T07:23:41.542Z,52.53
2018-08-03T07:26:17.160Z,52.32
2018-08-03T07:28:46.178Z,52.43
2018-08-03T07:33:53.116Z,52.53
2018-08-03T07:36:22.716Z,52.70
2018-08-03T07:38:51.683Z,52.92
2018-08-03T07:41:21.701Z,52.34
2018-08-03T07:43:51.190Z,52.38
2018-08-03T07:46:20.208Z,52.69
2018-08-03T07:48:50.304Z,51.89
2018-08-03T07:51:20.441Z,51.53
2018-08-03T07:53:49.867Z,52.12
2018-08-03T07:56:18.374Z,51.32
2018-08-03T07:58:47.160Z,51.41
2018-08-03T08:01:15.710Z,52.11
2018-08-03T08:03:44.763Z,51.45
2018-08-03T08:06:13.668Z,51.73
2018-08-03T08:08:42.392Z,51.15
2018-08-03T08:11:11.590Z,51.32
2018-08-03T08:13:40.300Z,51.39
2018-08-03T08:16:09.087Z,50.84
2018-08-03T08:18:38.242Z,50.93
2018-08-03T08:21:09.478Z,50.67
2018-08-03T08:23:38.684Z,50.46
2018-08-03T08:26:12.275Z,49.94
2018-08-03T08:28:41.324Z,50.40
2018-08-03T08:31:10.938Z,50.80
2018-08-03T08:33:44.818Z,50.84
2018-08-03T08:36:14.902Z,51.54
2018-08-03T08:38:45.320Z,51.40
2018-08-03T08:41:18.392Z,50.99
2018-08-03T08:43:48.290Z,50.95
2018-08-03T08:46:17.316Z,50.91
2018-08-03T08:48:46.477Z,50.26
2018-08-03T08:51:15.027Z,50.71
2018-08-03T08:56:36.596Z,48.45
2018-08-03T08:59:05.459Z,48.46
2018-08-03T09:01:35.303Z,48.61
2018-08-03T09:04:04.397Z,47.78
2018-08-03T09:06:33.393Z,47.12
2018-08-03T09:09:01.910Z,48.17
2018-08-03T09:11:30.705Z,47.27
2018-08-03T09:13:59.630Z,46.84
2018-08-03T09:16:28.680Z,45.81
2018-08-03T09:18:58.657Z,45.61
2018-08-03T09:21:27.643Z,46.82
2018-08-03T09:24:02.345Z,45.49
2018-08-03T09:26:33.497Z,44.46
2018-08-03T09:29:03.547Z,44.87
2018-08-03T09:31:34.737Z,44.03
2018-08-03T09:34:06.611Z,44.16
2018-08-03T09:36:35.394Z,44.70
2018-08-03T09:39:05.159Z,44.65
2018-08-03T09:41:33.571Z,43.61
2018-08-03T09:44:02.049Z,42.60
2018-08-03T09:46:30.485Z,42.16
2018-08-03T09:48:59.888Z,42.36
2018-08-03T09:51:29.027Z,42.85
2018-08-03T09:53:57.603Z,42.87
2018-08-03T09:56:26.146Z,43.06
2018-08-03T09:58:54.613Z,44.14
2018-08-03T10:01:24.004Z,43.63
2018-08-03T10:03:52.877Z,42.96
2018-08-03T10:06:21.441Z,43.70
2018-08-03T10:08:50.138Z,42.27
2018-08-03T10:11:18.974Z,42.60
2018-08-03T10:13:47.676Z,42.12
2018-08-03T10:16:16.257Z,41.06
2018-08-03T10:18:44.832Z,41.66
2018-08-03T10:21:13.589Z,41.46
2018-08-03T10:23:43.509Z,40.84
2018-08-03T10:26:12.028Z,40.60
2018-08-03T10:28:40.512Z,40.08
2018-08-03T10:31:08.971Z,39.50
2018-08-03T10:33:37.504Z,39.48
2018-08-03T10:36:06.096Z,40.09
2018-08-03T10:38:34.538Z,39.71
2018-08-03T10:41:02.938Z,39.47
2018-08-03T10:43:31.472Z,39.03
2018-08-03T10:46:00.520Z,38.29
2018-08-03T10:48:29.076Z,38.26
2018-08-03T10:50:57.566Z,38.25
2018-08-03T10:53:26.114Z,39.38
2018-08-03T10:55:55.502Z,38.63
2018-08-03T10:58:24.838Z,39.87
2018-08-03T11:00:53.538Z,38.06
2018-08-03T11:03:22.126Z,38.16
2018-08-03T11:05:50.568Z,37.44
2018-08-03T11:08:19.103Z,36.45
2018-08-03T11:10:47.700Z,35.48
2018-08-03T11:13:16.218Z,35.49
2018-08-03T11:15:44.658Z,37.11
2018-08-03T11:18:13.099Z,35.53
2018-08-03T11:20:41.670Z,35.71
2018-08-03T11:23:10.150Z,36.33
2018-08-03T11:25:38.613Z,35.16
2018-08-03T11:28:07.051Z,34.36
2018-08-03T11:30:35.588Z,34.12
2018-08-03T11:33:04.040Z,33.99
2018-08-03T11:35:32.486Z,34.49
2018-08-03T11:38:01.407Z,35.14
2018-08-03T11:40:29.888Z,34.06
2018-08-03T11:42:58.359Z,34.00
2018-08-03T11:45:26.802Z,34.62
2018-08-03T11:47:55.332Z,33.19
2018-08-03T11:50:23.756Z,33.13
2018-08-03T11:52:52.402Z,32.27
2018-08-03T11:55:20.875Z,32.90
2018-08-03T11:57:49.376Z,33.69
2018-08-03T12:00:18.002Z,33.18
2018-08-03T12:02:46.576Z,32.94
2018-08-03T12:05:15.324Z,33.20
2018-08-03T12:07:43.918Z,33.87
2018-08-03T12:10:12.436Z,32.57
2018-08-03T12:12:40.973Z,32.38
2018-08-03T12:15:09.433Z,32.70
2018-08-03T12:17:37.961Z,32.11
2018-08-03T12:20:06.568Z,32.09
2018-08-03T12:22:35.068Z,30.95
2018-08-03T12:25:03.528Z,31.03
2018-08-03T12:27:31.908Z,32.46
2018-08-03T12:30:00.398Z,33.39
2018-08-03T12:32:28.938Z,32.74
2018-08-03T12:34:57.388Z,31.52
2018-08-03T12:37:25.866Z,31.76
2018-08-03T12:39:54.284Z,30.94
2018-08-03T12:42:22.866Z,30.01
2018-08-03T12:44:51.364Z,29.59
2018-08-03T12:47:19.733Z,30.00
2018-08-03T12:49:48.207Z,29.05
2018-08-03T12:52:16.734Z,29.01
2018-08-03T12:54:45.196Z,29.32
2018-08-03T12:57:14.602Z,28.20
2018-08-03T12:59:42.299Z,27.58
2018-08-03T13:02:10.743Z,28.87
2018-08-03T13:04:39.501Z,28.86
2018-08-03T13:07:08.288Z,30.28
2018-08-03T13:09:36.698Z,30.16
2018-08-03T13:12:05.344Z,31.11
2018-08-03T13:14:33.885Z,30.41
2018-08-03T13:17:02.464Z,30.81
2018-08-03T13:19:30.950Z,29.46
2018-08-03T13:21:59.408Z,28.97
2018-08-03T13:24:28.073Z,29.35
2018-08-03T13:26:56.504Z,29.35
2018-08-03T13:29:25.032Z,28.85
2018-08-03T13:31:53.560Z,28.81
2018-08-03T13:34:22.300Z,28.88
2018-08-03T13:36:50.806Z,29.40
2018-08-03T13:39:19.327Z,30.13
2018-08-03T13:41:47.834Z,30.52
2018-08-03T13:44:16.349Z,31.41
2018-08-03T13:46:45.033Z,31.80
2018-08-03T13:49:14.924Z,32.67
2018-08-03T13:51:43.722Z,32.73
2018-08-03T13:54:12.302Z,33.75
2018-08-03T13:56:40.872Z,33.71
2018-08-03T13:59:09.526Z,33.56
2018-08-03T14:01:40.442Z,32.87
2018-08-03T14:04:08.852Z,33.20
2018-08-03T14:06:37.260Z,32.29
2018-08-03T14:09:07.054Z,32.03
2018-08-03T14:11:35.578Z,30.47
2018-08-03T14:14:04.045Z,31.19
2018-08-03T14:16:32.568Z,30.44
2018-08-03T14:19:01.101Z,30.43
2018-08-03T14:21:29.574Z,30.55
2018-08-03T14:23:59.892Z,30.78
2018-08-03T14:26:28.412Z,29.44
2018-08-03T14:28:57.092Z,29.84
2018-08-03T14:31:25.610Z,30.69
2018-08-03T14:33:54.866Z,30.52
2018-08-03T14:36:25.274Z,30.15
2018-08-03T14:38:53.792Z,31.12
2018-08-03T14:41:22.467Z,31.88
2018-08-03T14:43:50.990Z,32.26
2018-08-03T14:46:19.500Z,32.18
2018-08-03T14:48:48.094Z,32.51
2018-08-03T14:51:16.810Z,32.95
2018-08-03T14:53:45.280Z,32.07
2018-08-03T14:56:13.870Z,32.16
2018-08-03T14:58:42.414Z,32.71
2018-08-03T15:01:11.220Z,33.05
2018-08-03T15:03:39.808Z,33.03
2018-08-03T15:06:09.384Z,33.65
2018-08-03T15:08:38.018Z,33.39
2018-08-03T15:11:06.921Z,32.90
2018-08-03T15:13:35.453Z,32.39
2018-08-03T15:16:03.308Z,32.51
2018-08-03T15:18:31.040Z,33.09
2018-08-03T15:20:58.904Z,33.12
2018-08-03T15:23:26.650Z,33.58
2018-08-03T15:25:54.432Z,32.55
2018-08-03T15:28:22.408Z,33.00
2018-08-03T15:30:50.975Z,33.27
2018-08-03T15:33:18.738Z,32.87
2018-08-03T15:35:47.128Z,34.62
2018-08-03T15:38:15.496Z,34.62
2018-08-03T15:40:48.397Z,38.34
2018-08-03T15:43:19.934Z,34.74
2018-08-03T15:45:50.000Z,34.20
2018-08-03T15:48:21.447Z,35.13
2018-08-03T15:50:50.951Z,36.50
2018-08-03T15:53:20.608Z,35.40
2018-08-03T15:55:50.072Z,35.67
2018-08-03T15:58:18.664Z,36.84
2018-08-03T16:00:49.315Z,36.48
2018-08-03T16:03:18.690Z,35.88
2018-08-03T16:05:49.250Z,34.99
2018-08-03T16:08:20.902Z,36.02
2018-08-03T16:10:50.896Z,35.38
2018-08-03T16:13:20.598Z,34.95
2018-08-03T16:15:51.585Z,34.78
2018-08-03T16:18:20.350Z,34.60
2018-08-03T16:20:53.336Z,34.55
2018-08-03T16:29:23.996Z,35.35
2018-08-03T16:31:52.620Z,35.54
2018-08-03T16:34:22.786Z,34.76
2018-08-03T16:36:54.792Z,35.45
2018-08-03T16:39:23.760Z,34.39
2018-08-03T16:41:53.213Z,35.33
2018-08-03T17:01:54.948Z,35.95
2018-08-03T17:04:43.051Z,35.79
2018-08-03T17:07:11.497Z,36.52
2018-08-03T17:09:40.040Z,35.64
2018-08-03T17:12:08.809Z,36.58
2018-08-03T17:14:47.111Z,36.33
2018-08-03T17:17:16.217Z,36.94
2018-08-03T17:19:44.765Z,36.99
2018-08-03T17:22:14.896Z,36.48
2018-08-03T17:24:45.206Z,37.26
2018-08-03T17:27:13.758Z,37.37
2018-08-03T17:29:44.602Z,38.22
2018-08-03T17:32:13.282Z,37.44
2018-08-03T17:34:44.044Z,37.97
2018-08-03T17:37:12.596Z,38.43
2018-08-03T17:39:41.453Z,38.12
2018-08-03T17:42:10.464Z,38.37
2018-08-03T17:44:39.820Z,38.78
2018-08-03T17:47:08.426Z,38.34
2018-08-03T17:49:38.104Z,38.43
2018-08-03T17:52:06.585Z,37.80
2018-08-03T17:54:35.304Z,35.76
2018-08-03T17:57:03.986Z,36.47
2018-08-03T17:59:34.268Z,35.88
2018-08-03T18:02:06.584Z,36.57
2018-08-03T18:04:35.284Z,36.17
2018-08-03T18:07:05.039Z,37.19
2018-08-03T18:09:34.175Z,36.36
2018-08-03T18:12:02.708Z,36.58
2018-08-03T18:14:32.820Z,37.37
2018-08-03T18:17:01.526Z,38.07
2018-08-03T18:19:32.447Z,37.15
2018-08-03T18:22:03.041Z,38.02
2018-08-03T18:24:33.808Z,37.85
2018-08-03T18:27:03.100Z,38.13
2018-08-03T18:29:32.431Z,38.21
2018-08-03T18:32:03.734Z,37.52
2018-08-03T18:34:33.193Z,37.57
2018-08-03T18:37:03.752Z,37.86
2018-08-03T18:39:33.101Z,38.71
2018-08-03T18:42:03.167Z,37.03
2018-08-03T18:44:33.990Z,38.63
2018-08-03T18:47:03.739Z,38.08
2018-08-03T18:49:32.696Z,38.31
2018-08-03T18:52:03.476Z,38.62
2018-08-03T18:54:38.132Z,37.94
2018-08-03T18:57:08.465Z,38.50
2018-08-03T18:59:41.715Z,38.16
2018-08-03T19:02:11.596Z,38.81
2018-08-03T19:04:40.642Z,38.67
2018-08-03T19:07:10.083Z,38.82
2018-08-03T19:09:39.154Z,38.94
2018-08-03T19:12:09.973Z,38.71
2018-08-03T19:14:38.658Z,38.41
2018-08-03T19:17:08.478Z,38.10
2018-08-03T19:19:37.460Z,38.21
2018-08-03T19:22:07.860Z,37.82
2018-08-03T19:24:36.446Z,38.18
2018-08-03T19:27:05.328Z,38.30
2018-08-03T19:29:34.850Z,38.43
2018-08-03T19:32:04.867Z,38.81
2018-08-03T19:34:39.484Z,39.22
2018-08-03T19:37:08.952Z,39.36
2018-08-03T19:39:40.636Z,38.86
2018-08-03T19:42:09.502Z,38.79
2018-08-03T19:44:44.122Z,39.11
2018-08-03T19:47:12.911Z,38.09
2018-08-03T19:49:42.601Z,38.91
2018-08-03T19:52:11.321Z,38.77
2018-08-03T19:54:45.230Z,38.93
2018-08-03T19:57:14.146Z,39.31
2018-08-03T19:59:43.377Z,39.14
2018-08-03T20:02:12.282Z,38.53
2018-08-03T20:04:47.068Z,38.38
2018-08-03T20:07:16.754Z,38.41
2018-08-03T20:09:46.514Z,38.83
2018-08-03T20:12:15.383Z,38.93
2018-08-03T20:14:43.994Z,39.36
2018-08-03T20:17:13.592Z,39.20
2018-08-03T20:19:42.236Z,39.70
2018-08-03T20:22:15.212Z,39.10
2018-08-03T20:24:44.033Z,39.55
2018-08-03T20:27:14.280Z,39.35
2018-08-03T20:29:43.486Z,38.84
2018-08-03T20:32:12.094Z,38.97
2018-08-03T20:34:40.754Z,39.24
2018-08-03T20:37:09.417Z,39.48
2018-08-03T20:39:38.040Z,39.01
2018-08-03T20:42:06.660Z,39.27
2018-08-03T20:44:35.415Z,39.49
2018-08-03T20:47:04.128Z,39.50
2018-08-03T20:49:32.608Z,39.11
2018-08-03T20:52:01.209Z,39.42
2018-08-03T20:54:29.858Z,39.13
2018-08-03T20:56:58.470Z,39.11
2018-08-03T20:59:27.800Z,38.52
2018-08-03T21:01:56.338Z,38.75
2018-08-03T21:04:26.221Z,39.60
2018-08-03T21:06:54.727Z,39.41
2018-08-03T21:09:23.198Z,38.97
2018-08-03T21:11:51.886Z,38.70
2018-08-03T21:14:20.387Z,39.24
2018-08-03T21:16:49.889Z,38.79
2018-08-03T21:19:18.349Z,38.73
2018-08-03T21:21:46.778Z,39.33
2018-08-03T21:24:15.816Z,39.02
2018-08-03T21:26:44.361Z,39.20
2018-08-03T21:29:12.800Z,38.77
2018-08-03T21:31:41.288Z,38.86
2018-08-03T21:37:07.904Z,38.88
2018-08-03T21:39:36.882Z,39.02
2018-08-03T21:42:05.422Z,38.96
2018-08-03T21:44:43.450Z,39.46
2018-08-03T21:47:12.146Z,38.81
2018-08-03T21:49:40.923Z,38.42
2018-08-03T21:52:09.364Z,38.53
2018-08-03T21:54:37.901Z,38.48
2018-08-03T21:57:07.172Z,38.85
2018-08-03T21:59:36.154Z,38.97
2018-08-03T22:02:04.993Z,39.15
2018-08-03T22:04:39.539Z,38.73
2018-08-03T22:07:08.552Z,38.26
2018-08-03T22:09:38.789Z,38.43
2018-08-03T22:12:08.586Z,38.42
2018-08-03T22:14:37.272Z,38.44
2018-08-03T22:17:06.310Z,39.10
2018-08-03T22:19:35.812Z,38.83
2018-08-03T22:22:05.389Z,38.55
2018-08-03T22:24:34.169Z,38.31
2018-08-03T22:27:02.851Z,38.69
2018-08-03T22:29:32.341Z,38.76
2018-08-03T22:32:01.018Z,38.27
2018-08-03T22:34:31.528Z,38.19
2018-08-03T22:37:00.646Z,38.29
2018-08-03T22:39:29.165Z,37.71
2018-08-03T22:41:58.260Z,38.38
2018-08-03T22:44:27.341Z,38.67
2018-08-03T22:46:55.981Z,37.89
2018-08-03T22:49:24.871Z,38.13
2018-08-03T22:51:53.723Z,38.15
2018-08-03T22:54:22.227Z,38.52
2018-08-03T22:56:50.753Z,38.60
2018-08-03T22:59:19.361Z,37.51
2018-08-03T23:01:47.819Z,37.77
2018-08-03T23:04:16.239Z,38.05
2018-08-03T23:06:45.019Z,37.99
2018-08-03T23:09:14.402Z,37.97
2018-08-03T23:11:42.811Z,37.24
2018-08-03T23:14:12.247Z,37.94
2018-08-03T23:16:42.238Z,37.55
2018-08-03T23:19:11.123Z,37.56
2018-08-03T23:21:40.735Z,37.74
2018-08-03T23:24:09.381Z,38.13
2018-08-03T23:26:37.773Z,37.74
2018-08-03T23:29:06.367Z,38.36
2018-08-03T23:31:36.562Z,38.92
2018-08-03T23:34:05.045Z,38.63
2018-08-03T23:36:33.471Z,38.23
2018-08-03T23:39:02.986Z,38.07
2018-08-03T23:41:31.623Z,38.57
2018-08-03T23:44:00.126Z,38.79
2018-08-03T23:46:28.673Z,39.10
2018-08-03T23:48:57.210Z,39.23
2018-08-03T23:51:25.645Z,38.51
2018-08-03T23:53:54.260Z,39.36
2018-08-03T23:56:23.418Z,39.40
2018-08-03T23:58:54.189Z,38.88
